Time;durP1;ratioP1;P1;durP2;ratioP2;P2;SDS_P1;SDS_P2;PMS_P1;PMS_P2;Temp;Humidity;BMP_temperature;BMP_pressure;BME280_temperature;BME280_humidity;BME280_pressure;Samples;Min_cycle;Max_cycle;Signal;HPM_P1;HPM_P2
2023/07/07 00:00:05;;;;;;;6.00;3.80;;;;;;;22.71;74.27;99301.81;107600;1254;67750;-38
2023/07/07 00:02:33;;;;;;;;;;;;;;;22.70;74.19;99287.78;107706;1255;72653;-38
2023/07/07 00:05:01;;;;;;;5.50;4.30;;;;;;;22.64;74.67;99282.66;107539;1254;60498;-38
2023/07/07 00:07:28;;;;;;;4.90;4.40;;;;;;;22.59;75.01;99279.11;107644;1254;60316;-38
2023/07/07 00:09:56;;;;;;;5.20;4.00;;;;;;;22.61;74.50;99275.73;107559;1254;73656;-38
2023/07/07 00:12:24;;;;;;;3.60;3.30;;;;;;;22.61;74.25;99275.73;107641;1254;66299;-38
2023/07/07 00:14:51;;;;;;;4.10;3.50;;;;;;;22.62;73.92;99277.58;107677;1254;71372;-38
2023/07/07 00:17:19;;;;;;;4.40;3.90;;;;;;;22.62;73.67;99278.42;107551;1254;60510;-38
2023/07/07 00:19:47;;;;;;;7.70;4.60;;;;;;;22.60;73.11;99281.39;107672;1253;60399;-38
2023/07/07 00:22:16;;;;;;;5.50;4.00;;;;;;;22.56;73.04;99289.38;107627;1252;73865;-38
2023/07/07 00:24:43;;;;;;;5.10;4.00;;;;;;;22.52;73.29;99290.61;107596;1254;66433;-38
2023/07/07 00:27:11;;;;;;;7.00;3.60;;;;;;;22.49;73.25;99293.94;107575;1257;72707;-38
2023/07/07 00:29:38;;;;;;;4.70;3.90;;;;;;;22.50;73.14;99294.61;107477;1254;60326;-38
2023/07/07 00:32:08;;;;;;;5.10;4.00;;;;;;;22.50;72.80;99291.95;107626;1252;60607;-38
2023/07/07 00:34:36;;;;;;;4.20;3.80;;;;;;;22.47;72.61;99291.33;107589;1254;73878;-38
2023/07/07 00:37:04;;;;;;;5.40;3.70;;;;;;;22.45;72.49;99290.69;107651;1256;66998;-38
2023/07/07 00:39:31;;;;;;;4.10;3.40;;;;;;;22.43;72.45;99287.98;107706;1253;71623;-38
2023/07/07 00:41:59;;;;;;;5.30;3.70;;;;;;;22.43;72.61;99286.95;107686;1254;60841;-38
2023/07/07 00:45:04;;;;;;;5.10;3.90;;;;;;;22.45;72.58;99286.33;107601;1254;60318;-38
2023/07/07 00:47:33;;;;;;;4.30;3.80;;;;;;;22.42;72.88;99280.09;107588;1254;73874;-38
2023/07/07 00:50:02;;;;;;;5.50;4.00;;;;;;;22.36;73.21;99273.51;107686;1254;68099;-38
2023/07/07 00:52:29;;;;;;;7.90;4.10;;;;;;;22.34;73.20;99260.39;107648;1254;72694;-38
2023/07/07 00:54:59;;;;;;;4.80;3.40;;;;;;;22.34;73.18;99259.76;107732;1254;60372;-38
2023/07/07 00:57:26;;;;;;;4.60;3.80;;;;;;;22.33;72.99;99275.48;107524;1253;60341;-38
2023/07/07 00:59:54;;;;;;;4.00;3.60;;;;;;;22.31;72.73;99289.67;107610;1254;72614;-38
2023/07/07 01:02:26;;;;;;;6.10;4.10;;;;;;;22.26;72.83;99297.80;107484;1254;66390;-38
2023/07/07 01:04:56;;;;;;;5.20;3.80;;;;;;;22.23;72.85;99296.46;107442;1254;72166;-38
2023/07/07 01:07:34;;;;;;;;;;;;;;;22.19;72.94;99300.92;107676;1254;61643;-38
2023/07/07 01:10:02;;;;;;;5.60;3.80;;;;;;;22.12;72.97;99310.90;107616;1253;60373;-38
2023/07/07 01:12:30;;;;;;;4.60;3.90;;;;;;;22.11;73.17;99314.71;107616;1254;72613;-38
2023/07/07 01:14:57;;;;;;;5.10;3.90;;;;;;;22.15;72.79;99314.38;107633;1254;68073;-38
2023/07/07 01:17:46;;;;;;;4.40;3.90;;;;;;;22.17;72.80;99318.67;107652;1254;72689;-38
2023/07/07 01:20:31;;;;;;;5.30;4.30;;;;;;;22.16;72.80;99324.14;107480;1260;59320;-38
2023/07/07 01:23:02;;;;;;;4.20;3.70;;;;;;;22.11;72.80;99330.27;107732;1253;60278;-38
2023/07/07 01:25:36;;;;;;;4.40;3.80;;;;;;;22.11;72.69;99330.73;107476;1253;72602;-38
2023/07/07 01:28:37;;;;;;;6.20;4.20;;;;;;;22.17;72.42;99325.35;107646;1254;67068;-38
2023/07/07 01:31:18;;;;;;;5.40;4.10;;;;;;;22.19;72.47;99318.05;107629;1253;72699;-38
2023/07/07 01:33:46;;;;;;;5.60;4.50;;;;;;;22.15;73.03;99304.59;107623;1254;60507;-38
2023/07/07 01:36:14;;;;;;;4.10;3.70;;;;;;;22.07;72.86;99297.63;107698;1257;60006;-38
2023/07/07 01:38:44;;;;;;;5.20;4.40;;;;;;;22.01;72.92;99298.98;107624;1254;73821;-38
2023/07/07 01:41:34;;;;;;;6.80;4.30;;;;;;;22.01;73.11;99297.73;107652;1254;66425;-38
2023/07/07 01:44:04;;;;;;;4.80;4.30;;;;;;;21.99;73.38;99294.55;107623;1254;71414;-38
2023/07/07 01:46:55;;;;;;;7.30;5.00;;;;;;;21.97;73.46;99291.44;107668;1252;60142;-38
2023/07/07 01:49:26;;;;;;;5.50;4.30;;;;;;;22.00;73.25;99294.30;107480;1254;60389;-38
2023/07/07 01:52:05;;;;;;;5.70;3.60;;;;;;;22.03;73.39;99296.32;107707;1257;73824;-38
2023/07/07 01:54:34;;;;;;;4.40;3.90;;;;;;;22.08;73.23;99299.18;107664;1254;67887;-38
2023/07/07 01:57:01;;;;;;;5.50;4.70;;;;;;;22.07;73.27;99305.98;107721;1254;71422;-38
2023/07/07 01:59:30;;;;;;;5.20;4.60;;;;;;;22.05;73.21;99305.33;107478;1254;59594;-38
2023/07/07 02:01:57;;;;;;;5.70;4.30;;;;;;;22.02;73.16;99296.67;107374;1253;60508;-38
2023/07/07 02:04:25;;;;;;;5.80;4.10;;;;;;;21.99;73.23;99288.16;107488;1254;73949;-38
2023/07/07 02:06:53;;;;;;;6.90;4.50;;;;;;;21.94;73.14;99284.61;107707;1254;65824;-38
2023/07/07 02:09:20;;;;;;;11.10;4.80;;;;;;;21.86;73.24;99282.90;107635;1255;71883;-38
2023/07/07 02:11:48;;;;;;;5.90;4.60;;;;;;;21.76;73.52;99284.30;107586;1257;60310;-38
2023/07/07 02:14:16;;;;;;;6.10;4.70;;;;;;;21.65;73.92;99285.36;107495;1253;60417;-38
2023/07/07 02:16:43;;;;;;;6.60;4.60;;;;;;;21.61;74.30;99286.36;107492;1254;72869;-38
2023/07/07 02:19:12;;;;;;;10.80;4.20;;;;;;;21.57;74.50;99285.83;107512;1254;67634;-38
2023/07/07 02:21:40;;;;;;;6.20;4.70;;;;;;;21.51;74.79;99288.77;107666;1255;72736;-38
2023/07/07 02:24:07;;;;;;;5.10;4.40;;;;;;;21.44;75.27;99289.18;107532;1254;60398;-38
2023/07/07 02:26:35;;;;;;;5.80;4.30;;;;;;;21.37;75.35;99282.11;107502;1257;60280;-38
2023/07/07 02:29:03;;;;;;;5.50;3.90;;;;;;;21.34;75.61;99264.56;107683;1254;74271;-38
2023/07/07 02:31:30;;;;;;;5.90;4.60;;;;;;;21.33;75.94;99229.04;107607;1260;67141;-38
2023/07/07 02:33:58;;;;;;;5.10;4.20;;;;;;;21.30;76.28;99216.91;107513;1254;71468;-38
2023/07/07 02:36:26;;;;;;;5.50;4.20;;;;;;;21.25;76.42;99212.00;107610;1259;60440;-38
2023/07/07 02:38:53;;;;;;;5.70;4.50;;;;;;;21.21;76.69;99211.40;107519;1255;60500;-37
2023/07/07 02:41:21;;;;;;;6.70;4.10;;;;;;;21.19;76.85;99222.95;107601;1254;72964;-37
2023/07/07 02:43:49;;;;;;;4.30;3.90;;;;;;;21.20;76.87;99230.14;107675;1253;67685;-38
2023/07/07 02:46:20;;;;;;;5.40;4.20;;;;;;;21.17;76.88;99229.78;107632;1254;72741;-38
2023/07/07 02:48:47;;;;;;;6.40;4.20;;;;;;;21.12;77.20;99237.35;107484;1254;59306;-38
2023/07/07 02:51:15;;;;;;;5.10;4.20;;;;;;;21.10;77.38;99252.92;107567;1254;60289;-38
2023/07/07 02:53:43;;;;;;;6.90;4.00;;;;;;;21.12;77.44;99260.67;107650;1254;73829;-38
2023/07/07 02:56:11;;;;;;;7.90;4.70;;;;;;;21.19;77.48;99262.96;107650;1254;66396;-38
2023/07/07 02:58:38;;;;;;;5.80;4.00;;;;;;;21.23;77.36;99271.18;107605;1257;72725;-38
2023/07/07 03:01:10;;;;;;;5.10;4.40;;;;;;;21.25;77.36;99278.95;107503;1254;61749;-38
2023/07/07 03:03:39;;;;;;;6.00;4.40;;;;;;;21.29;77.19;99286.41;107672;1256;59100;-38
2023/07/07 03:06:09;;;;;;;5.50;4.50;;;;;;;21.38;77.08;99289.11;107698;1255;73792;-38
2023/07/07 03:08:37;;;;;;;4.80;4.30;;;;;;;21.44;77.01;99286.11;107652;1257;67684;-38
2023/07/07 03:11:06;;;;;;;5.10;4.60;;;;;;;21.48;76.69;99273.64;107597;1253;72609;-38
2023/07/07 03:13:35;;;;;;;5.70;4.40;;;;;;;21.51;76.53;99264.17;107659;1256;61983;-38
2023/07/07 03:16:13;;;;;;;7.60;4.20;;;;;;;21.59;76.13;99262.00;107476;1255;60277;-38
2023/07/07 03:18:45;;;;;;;5.00;4.50;;;;;;;21.68;75.80;99265.83;107625;1257;73685;-38
2023/07/07 03:21:15;;;;;;;7.30;5.10;;;;;;;21.72;75.65;99263.18;107689;1256;67437;-38
2023/07/07 03:23:43;;;;;;;9.80;5.70;;;;;;;21.75;75.60;99256.23;107488;1257;71412;-38
2023/07/07 03:26:15;;;;;;;7.20;5.30;;;;;;;21.74;75.44;99262.28;107521;1258;61553;-38
2023/07/07 03:28:43;;;;;;;7.60;5.80;;;;;;;21.69;75.45;99275.09;107491;1252;60402;-38
2023/07/07 03:31:13;;;;;;;6.20;5.60;;;;;;;21.67;75.65;99288.40;107655;1252;73825;-38
2023/07/07 03:33:43;;;;;;;6.60;5.50;;;;;;;21.67;75.88;99297.06;107570;1254;67572;-38
2023/07/07 03:36:12;;;;;;;8.60;5.50;;;;;;;21.67;75.83;99298.34;107642;1256;72647;-38
2023/07/07 03:38:40;;;;;;;6.50;5.10;;;;;;;21.66;76.09;99295.06;107497;1259;60546;-38
2023/07/07 03:41:14;;;;;;;8.60;5.80;;;;;;;21.68;75.98;99292.00;107516;1255;59099;-38
2023/07/07 03:43:45;;;;;;;7.70;5.70;;;;;;;21.73;76.09;99296.61;107511;1254;72567;-38
2023/07/07 03:46:17;;;;;;;7.70;5.60;;;;;;;21.74;76.00;99301.05;107509;1254;66790;-38
2023/07/07 03:48:46;;;;;;;9.40;6.00;;;;;;;21.74;75.92;99306.75;107321;1258;73247;-38
2023/07/07 03:51:16;;;;;;;8.60;6.40;;;;;;;21.72;76.03;99308.61;107375;1254;60405;-38
2023/07/07 03:53:43;;;;;;;7.60;5.80;;;;;;;21.76;76.21;99310.25;107389;1253;60490;-38
2023/07/07 03:56:13;;;;;;;9.40;6.40;;;;;;;21.81;76.20;99308.84;107523;1259;72625;-38
2023/07/07 03:58:41;;;;;;;8.80;5.60;;;;;;;21.83;76.12;99310.73;107532;1256;66289;-38
2023/07/07 04:01:10;;;;;;;8.30;6.40;;;;;;;21.82;76.05;99314.40;107339;1260;72676;-38
2023/07/07 04:03:38;;;;;;;9.90;6.70;;;;;;;21.75;76.22;99322.86;107401;1254;60379;-38
2023/07/07 04:06:08;;;;;;;8.30;6.30;;;;;;;21.75;76.67;99322.02;107362;1260;60280;-38
2023/07/07 04:08:36;;;;;;;9.40;6.10;;;;;;;21.79;76.46;99321.83;107501;1258;73873;-38
2023/07/07 04:11:16;;;;;;;9.50;7.30;;;;;;;21.81;76.72;99326.27;107354;1259;67611;-38
2023/07/07 04:13:45;;;;;;;8.70;6.80;;;;;;;21.82;76.57;99333.04;107485;1260;72468;-38
2023/07/07 04:16:20;;;;;;;10.30;7.30;;;;;;;21.80;76.89;99339.23;107554;1259;60374;-38
2023/07/07 04:18:49;;;;;;;9.90;7.10;;;;;;;21.86;76.79;99341.19;107564;1259;60508;-38
2023/07/07 04:21:18;;;;;;;10.90;6.90;;;;;;;21.90;76.83;99343.20;107510;1254;73715;-38
2023/07/07 04:23:47;;;;;;;10.40;8.00;;;;;;;21.90;76.90;99347.70;107564;1259;66133;-38
2023/07/07 04:26:16;;;;;;;9.00;8.10;;;;;;;21.92;77.02;99344.73;107536;1259;72737;-38
2023/07/07 04:28:43;;;;;;;15.20;8.00;;;;;;;21.94;77.43;99337.30;107552;1254;61664;-38
2023/07/07 04:31:11;;;;;;;14.70;8.20;;;;;;;21.98;77.43;99330.38;107493;1253;60380;-38
2023/07/07 04:33:39;;;;;;;11.40;8.50;;;;;;;22.06;77.31;99324.39;107375;1254;71709;-38
2023/07/07 04:36:08;;;;;;;10.40;9.20;;;;;;;22.13;77.18;99318.36;107520;1258;67945;-38
2023/07/07 04:38:36;;;;;;;10.30;8.70;;;;;;;22.18;77.46;99313.65;107532;1260;72665;-38
2023/07/07 04:41:11;;;;;;;9.70;8.60;;;;;;;22.22;77.27;99317.73;107453;1259;61700;-38
2023/07/07 04:43:49;;;;;;;10.30;9.20;;;;;;;22.28;77.24;99315.35;107510;1260;60334;-38
2023/07/07 04:46:29;;;;;;;14.80;11.30;;;;;;;22.36;77.29;99308.63;107490;1259;73885;-38
2023/07/07 04:48:57;;;;;;;11.60;10.10;;;;;;;22.37;77.05;99304.25;107506;1254;68113;-38
2023/07/07 04:51:25;;;;;;;12.80;10.30;;;;;;;22.41;77.30;99299.48;107529;1255;72818;-38
2023/07/07 04:53:53;;;;;;;14.00;12.00;;;;;;;22.45;76.97;99300.69;107568;1256;61715;-38
2023/07/07 04:56:21;;;;;;;11.20;9.70;;;;;;;22.51;76.64;99300.50;107595;1254;60015;-38
2023/07/07 04:58:51;;;;;;;11.80;10.40;;;;;;;22.56;76.64;99300.06;107547;1254;73829;-38
2023/07/07 05:01:24;;;;;;;13.20;10.60;;;;;;;22.58;76.74;99294.85;107535;1260;67613;-39
2023/07/07 05:03:56;;;;;;;12.80;10.90;;;;;;;22.62;76.73;99292.77;107566;1260;72718;-38
2023/07/07 05:06:25;;;;;;;11.40;10.00;;;;;;;22.66;76.33;99298.23;107467;1259;61629;-38
2023/07/07 05:08:53;;;;;;;12.80;10.80;;;;;;;22.75;76.45;99301.69;107578;1254;60344;-38
2023/07/07 05:11:24;;;;;;;12.10;10.30;;;;;;;22.88;76.89;99295.66;107489;1255;73936;-38
2023/07/07 05:13:52;;;;;;;13.20;10.20;;;;;;;23.03;76.92;99294.40;107509;1254;65698;-38
2023/07/07 05:16:21;;;;;;;10.50;9.40;;;;;;;23.18;75.85;99297.08;107597;1254;72669;-38
2023/07/07 05:18:49;;;;;;;10.70;9.60;;;;;;;23.31;74.92;99296.55;107498;1259;60418;-38
2023/07/07 05:21:18;;;;;;;11.00;9.40;;;;;;;23.37;74.21;99299.75;107507;1254;60316;-38
2023/07/07 05:23:46;;;;;;;10.30;9.30;;;;;;;23.36;73.69;99304.58;107538;1259;73862;-38
2023/07/07 05:26:14;;;;;;;9.50;8.60;;;;;;;23.33;74.01;99308.41;107498;1259;67893;-38
2023/07/07 05:28:42;;;;;;;11.20;8.40;;;;;;;23.37;74.15;99306.76;107469;1260;72735;-38
2023/07/07 05:31:09;;;;;;;10.60;9.60;;;;;;;23.46;73.59;99309.35;107479;1254;60471;-38
2023/07/07 05:33:38;;;;;;;11.90;9.60;;;;;;;23.47;73.59;99315.54;107553;1254;60226;-38
2023/07/07 05:36:08;;;;;;;12.80;9.20;;;;;;;23.48;73.61;99315.60;107636;1255;72609;-38
2023/07/07 05:38:38;;;;;;;10.80;8.80;;;;;;;23.51;73.83;99317.45;107541;1259;65801;-38
2023/07/07 05:41:05;;;;;;;;;;;;;;;23.58;73.19;99308.45;107534;1254;72737;-38
2023/07/07 05:43:36;;;;;;;10.60;8.00;;;;;;;23.61;72.26;99308.91;107613;1254;60907;-38
2023/07/07 05:46:05;;;;;;;10.90;8.50;;;;;;;23.57;72.19;99313.55;107564;1254;59290;-38
2023/07/07 05:48:33;;;;;;;9.80;8.80;;;;;;;23.62;72.27;99315.91;107498;1258;71856;-38
2023/07/07 05:51:03;;;;;;;9.70;7.90;;;;;;;23.67;72.18;99316.83;107532;1254;67631;-38
2023/07/07 05:53:31;;;;;;;8.50;7.70;;;;;;;23.71;71.50;99322.62;107715;1251;73007;-38
2023/07/07 05:56:06;;;;;;;9.50;8.30;;;;;;;23.80;71.21;99326.24;107668;1251;60385;-38
2023/07/07 05:58:35;;;;;;;8.30;7.20;;;;;;;23.82;70.79;99333.69;107731;1256;60331;-38
2023/07/07 06:01:03;;;;;;;8.20;7.40;;;;;;;23.84;70.41;99330.02;107756;1257;73842;-38
2023/07/07 06:03:31;;;;;;;8.30;6.60;;;;;;;23.86;70.32;99333.48;107694;1251;67964;-38
2023/07/07 06:05:59;;;;;;;7.60;6.90;;;;;;;23.94;70.46;99331.48;107716;1251;72685;-38
2023/07/07 06:08:29;;;;;;;8.10;7.30;;;;;;;24.03;70.22;99328.77;107732;1254;60399;-38
2023/07/07 06:10:56;;;;;;;8.50;7.60;;;;;;;24.08;70.30;99328.59;107759;1251;60410;-38
2023/07/07 06:13:24;;;;;;;7.60;6.70;;;;;;;24.13;70.27;99330.19;107661;1251;73888;-38
2023/07/07 06:15:53;;;;;;;7.30;6.50;;;;;;;24.20;69.49;99322.98;107749;1254;67569;-38
2023/07/07 06:18:21;;;;;;;7.80;6.50;;;;;;;24.24;69.06;99331.80;107609;1257;72709;-38
2023/07/07 06:20:50;;;;;;;8.30;6.60;;;;;;;24.34;69.00;99335.33;107607;1257;61655;-38
2023/07/07 06:23:18;;;;;;;7.40;6.60;;;;;;;24.43;68.22;99335.11;107729;1253;61197;-38
2023/07/07 06:25:47;;;;;;;6.70;5.90;;;;;;;24.52;67.50;99336.35;107659;1256;73870;-38
2023/07/07 06:28:16;;;;;;;7.50;6.70;;;;;;;24.61;67.39;99333.14;107546;1254;67886;-38
2023/07/07 06:30:49;;;;;;;7.60;6.80;;;;;;;24.68;67.26;99332.55;107639;1257;71402;-38
2023/07/07 06:33:17;;;;;;;11.80;7.90;;;;;;;24.74;67.00;99333.98;107422;1254;61665;-38
2023/07/07 06:35:48;;;;;;;9.50;6.70;;;;;;;24.81;67.26;99334.84;107531;1253;60083;-38
2023/07/07 06:38:16;;;;;;;8.90;6.10;;;;;;;24.89;67.13;99330.90;107531;1254;72672;-38
2023/07/07 06:40:45;;;;;;;8.00;7.10;;;;;;;24.96;66.86;99329.45;107560;1251;66804;-38
2023/07/07 06:43:17;;;;;;;;;;;;;;;24.99;66.10;99320.27;107653;1254;72661;-39
2023/07/07 06:45:48;;;;;;;7.10;6.40;;;;;;;24.96;66.22;99320.64;107581;1257;60456;-40
2023/07/07 06:48:16;;;;;;;8.60;6.50;;;;;;;24.92;66.01;99321.76;107754;1251;60383;-40
2023/07/07 06:50:44;;;;;;;6.80;6.10;;;;;;;24.94;65.55;99322.30;107629;1251;73852;-40
2023/07/07 06:53:11;;;;;;;8.10;6.10;;;;;;;25.02;65.65;99312.39;107589;1254;67567;-40
2023/07/07 06:55:40;;;;;;;8.50;6.60;;;;;;;25.14;66.25;99315.17;107575;1257;72724;-39
2023/07/07 06:58:10;;;;;;;8.70;7.00;;;;;;;25.17;66.13;99314.30;107604;1254;60266;-40
2023/07/07 07:00:38;;;;;;;9.60;6.60;;;;;;;25.09;66.26;99313.06;107592;1254;61244;-40
2023/07/07 07:03:06;;;;;;;6.10;5.50;;;;;;;25.01;66.74;99313.16;107588;1254;73829;-40
2023/07/07 07:05:34;;;;;;;9.30;7.00;;;;;;;25.01;66.54;99317.81;107503;1254;144591;-40
2023/07/07 07:10:11;;;;;;;7.30;6.60;;;;;;;25.13;65.91;99316.67;104227;1292;601074;-39
2023/07/07 07:12:39;;;;;;;7.20;6.50;;;;;;;25.19;65.18;99319.53;106655;1266;60147;-40
2023/07/07 07:15:09;;;;;;;7.60;6.90;;;;;;;25.28;65.53;99325.18;106624;1266;59569;-39
2023/07/07 07:17:37;;;;;;;8.70;7.10;;;;;;;25.40;65.48;99323.81;106675;1266;72702;-39
2023/07/07 07:20:09;;;;;;;10.40;7.30;;;;;;;25.49;65.24;99324.06;106695;1266;67098;-39
2023/07/07 07:22:36;;;;;;;9.10;7.40;;;;;;;25.58;65.26;99329.35;106627;1267;72695;-39
2023/07/07 07:25:05;;;;;;;8.90;7.20;;;;;;;25.62;64.35;99328.71;106585;1263;59333;-40
2023/07/07 07:27:33;;;;;;;7.80;7.00;;;;;;;25.63;63.89;99334.77;106773;1268;59289;-40
2023/07/07 07:30:00;;;;;;;8.20;6.80;;;;;;;25.65;64.35;99331.91;106780;1263;72297;-41
2023/07/07 07:32:28;;;;;;;7.90;5.70;;;;;;;25.72;64.79;99339.39;106711;1263;68083;-39
2023/07/07 07:34:56;;;;;;;6.40;5.50;;;;;;;25.82;63.53;99338.07;106784;1263;73171;-40
2023/07/07 07:37:23;;;;;;;7.00;6.20;;;;;;;25.94;63.26;99338.18;106782;1263;60066;-39
2023/07/07 07:39:51;;;;;;;6.60;6.00;;;;;;;26.01;63.41;99341.75;106685;1263;60089;-38
2023/07/07 07:42:22;;;;;;;9.30;6.90;;;;;;;26.08;63.17;99342.95;106728;1263;73087;-38
2023/07/07 07:44:50;;;;;;;7.40;6.40;;;;;;;26.09;62.33;99342.83;106803;1263;66762;-40
2023/07/07 07:47:19;;;;;;;11.80;8.00;;;;;;;26.07;62.86;99347.21;106724;1268;71452;-38
2023/07/07 07:49:47;;;;;;;7.10;6.20;;;;;;;26.04;62.17;99347.27;106768;1263;61132;-38
2023/07/07 07:52:16;;;;;;;7.40;6.70;;;;;;;26.00;62.90;99352.73;106814;1264;60049;-38
2023/07/07 07:54:43;;;;;;;8.80;6.10;;;;;;;26.07;62.74;99356.91;106777;1263;73062;-38
2023/07/07 07:57:11;;;;;;;6.40;5.80;;;;;;;26.20;62.95;99359.50;106774;1268;66739;-38
2023/07/07 07:59:39;;;;;;;8.30;6.60;;;;;;;26.28;62.52;99361.66;106709;1266;72730;-38
2023/07/07 08:02:10;;;;;;;6.90;6.30;;;;;;;26.37;62.02;99361.11;106733;1265;60261;-38
2023/07/07 08:04:38;;;;;;;7.40;6.40;;;;;;;26.45;61.82;99361.77;106806;1263;60056;-38
2023/07/07 08:07:05;;;;;;;7.10;6.40;;;;;;;26.57;61.89;99371.48;106765;1263;71153;-39
2023/07/07 08:09:33;;;;;;;7.20;6.60;;;;;;;26.68;61.55;99372.30;106638;1263;66306;-39
2023/07/07 08:12:01;;;;;;;6.90;6.20;;;;;;;26.75;61.05;99373.18;106677;1267;71378;-39
2023/07/07 08:14:32;;;;;;;7.60;6.80;;;;;;;26.86;62.14;99372.98;106705;1263;60088;-39
2023/07/07 08:17:08;;;;;;;7.70;6.40;;;;;;;26.96;61.12;99371.73;106709;1263;60267;-40
2023/07/07 08:19:37;;;;;;;9.00;6.80;;;;;;;27.03;60.40;99373.60;106712;1263;73090;-40
2023/07/07 08:22:06;;;;;;;10.10;7.70;;;;;;;27.06;60.62;99371.16;106788;1268;67927;-39
2023/07/07 08:24:46;;;;;;;8.70;7.90;;;;;;;27.06;61.24;99369.36;106713;1263;71450;-39
2023/07/07 08:27:14;;;;;;;9.60;8.50;;;;;;;26.98;60.81;99374.17;106646;1263;59395;-39
2023/07/07 08:29:45;;;;;;;9.70;8.70;;;;;;;26.90;61.54;99373.59;106616;1263;59689;-39
2023/07/07 08:32:14;;;;;;;10.40;7.80;;;;;;;26.89;61.42;99374.00;106668;1264;73076;-39
2023/07/07 08:34:41;;;;;;;9.90;7.90;;;;;;;26.97;61.98;99374.61;107121;1257;67566;-39
2023/07/07 08:37:22;;;;;;;8.10;7.30;;;;;;;27.17;61.80;99375.52;107206;1261;72693;-39
2023/07/07 08:39:50;;;;;;;8.50;7.70;;;;;;;27.34;60.89;99380.15;107029;1258;59451;-39
2023/07/07 08:42:28;;;;;;;9.10;7.80;;;;;;;27.42;59.98;99380.63;107175;1256;60022;-39
2023/07/07 08:44:58;;;;;;;8.80;8.00;;;;;;;27.44;60.48;99379.01;107101;1256;73191;-39
2023/07/07 08:47:52;;;;;;;9.70;8.10;;;;;;;27.47;59.98;99383.70;107081;1257;67579;-39
2023/07/07 08:50:26;;;;;;;8.60;7.60;;;;;;;27.42;59.04;99385.63;107208;1261;72784;-39
2023/07/07 08:53:22;;;;;;;9.30;8.40;;;;;;;27.36;60.10;99388.48;107065;1256;61661;-38
2023/07/07 08:55:51;;;;;;;9.90;8.10;;;;;;;27.31;59.89;99387.77;106997;1257;60074;-38
2023/07/07 08:58:52;;;;;;;10.90;9.70;;;;;;;27.18;59.50;99390.72;107035;1256;73075;-39
2023/07/07 09:01:23;;;;;;;9.00;8.10;;;;;;;27.02;60.60;99380.99;107091;1258;67983;-39
2023/07/07 09:03:51;;;;;;;9.50;8.50;;;;;;;26.96;61.03;99383.03;107001;1256;71455;-39
2023/07/07 09:06:40;;;;;;;9.50;8.50;;;;;;;26.93;60.94;99381.95;106963;1256;60542;-39
2023/07/07 09:09:23;;;;;;;9.40;8.50;;;;;;;26.88;60.64;99383.02;106957;1257;60021;-39
2023/07/07 09:12:21;;;;;;;11.40;8.90;;;;;;;26.80;61.23;99380.65;107006;1257;73066;-39
2023/07/07 09:14:49;;;;;;;8.90;7.30;;;;;;;26.81;60.97;99378.75;106906;1259;68518;-39
2023/07/07 09:17:20;;;;;;;9.00;7.60;;;;;;;26.80;61.07;99378.27;107030;1259;72654;-39
2023/07/07 09:19:48;;;;;;;9.10;8.20;;;;;;;26.72;61.10;99379.19;107073;1256;60972;-39
2023/07/07 09:22:24;;;;;;;8.40;7.60;;;;;;;26.70;60.77;99384.36;106966;1256;59517;-38
2023/07/07 09:25:15;;;;;;;8.20;7.40;;;;;;;26.65;60.73;99383.41;106948;1260;74756;-39
2023/07/07 09:27:45;;;;;;;8.50;7.70;;;;;;;26.60;60.52;99383.17;106945;1257;67577;-39
2023/07/07 09:30:24;;;;;;;;;;;;;;;26.57;60.32;99380.84;107058;1257;73147;-39
2023/07/07 09:32:52;;;;;;;;;;;;;;;26.59;60.74;99380.21;106909;1257;60078;-39
2023/07/07 09:35:20;;;;;;;8.80;7.80;;;;;;;26.56;60.58;99379.30;107047;1262;59831;-39
2023/07/07 09:38:08;;;;;;;8.90;7.10;;;;;;;26.57;60.31;99379.42;107090;1263;73832;-40
2023/07/07 09:40:43;;;;;;;8.60;6.80;;;;;;;26.66;59.22;99382.11;107217;1256;67648;-40
2023/07/07 09:43:26;;;;;;;8.00;7.30;;;;;;;26.69;58.85;99383.21;107019;1256;73159;-38
2023/07/07 09:46:10;;;;;;;8.10;7.20;;;;;;;26.86;59.95;99386.36;107199;1262;59449;-38
2023/07/07 09:48:40;;;;;;;7.90;7.20;;;;;;;27.06;58.45;99390.55;107222;1257;60024;-40
2023/07/07 09:51:26;;;;;;;;;;;;;;;27.26;57.78;99394.20;107200;1257;73049;-40
2023/07/07 09:53:54;;;;;;;8.20;7.40;;;;;;;27.34;57.24;99390.08;107088;1257;66276;-40
2023/07/07 09:56:23;;;;;;;7.40;6.70;;;;;;;27.41;56.89;99387.91;107039;1256;72718;-40
2023/07/07 09:59:02;;;;;;;7.90;7.20;;;;;;;27.60;57.52;99387.37;107038;1257;59161;-40
2023/07/07 10:01:34;;;;;;;7.20;6.50;;;;;;;27.75;56.41;99383.59;106982;1259;59489;-41
2023/07/07 10:04:02;;;;;;;7.70;6.90;;;;;;;27.81;56.26;99376.41;107041;1256;73069;-40
2023/07/07 10:06:47;;;;;;;7.00;6.30;;;;;;;27.89;55.93;99376.76;106947;1256;66507;-40
2023/07/07 10:09:16;;;;;;;7.10;6.30;;;;;;;28.03;55.81;99375.36;106969;1257;71496;-40
2023/07/07 10:11:45;;;;;;;8.40;6.30;;;;;;;28.18;55.35;99369.25;107149;1257;59609;-40
2023/07/07 10:14:16;;;;;;;6.90;6.20;;;;;;;28.38;55.17;99365.24;107084;1256;60150;-40
2023/07/07 10:16:49;;;;;;;6.30;5.80;;;;;;;28.56;54.71;99368.27;107080;1258;71838;-40
2023/07/07 10:19:17;;;;;;;5.70;5.20;;;;;;;28.68;53.77;99367.53;107105;1257;66322;-40
2023/07/07 10:21:45;;;;;;;5.80;5.30;;;;;;;28.72;52.42;99365.82;107198;1257;73138;-41
2023/07/07 10:24:13;;;;;;;5.70;5.20;;;;;;;28.68;51.37;99365.63;107000;1256;59612;-40
2023/07/07 10:26:45;;;;;;;8.00;5.80;;;;;;;28.64;52.50;99359.36;107106;1257;60070;-40
2023/07/07 10:29:16;;;;;;;6.30;5.70;;;;;;;28.64;53.09;99361.52;107073;1257;71887;-40
2023/07/07 10:31:46;;;;;;;6.10;5.50;;;;;;;28.71;53.18;99357.18;106949;1262;67912;-41
2023/07/07 10:34:36;;;;;;;5.30;4.70;;;;;;;28.74;52.48;99355.48;107007;1257;71963;-40
2023/07/07 10:37:21;;;;;;;7.70;5.40;;;;;;;28.77;52.48;99353.98;107187;1257;60117;-40
2023/07/07 10:39:50;;;;;;;6.50;5.90;;;;;;;28.78;52.08;99354.97;107192;1257;59584;-40
2023/07/07 10:42:20;;;;;;;6.80;5.80;;;;;;;28.74;51.97;99349.79;107092;1257;73029;-39
2023/07/07 10:44:47;;;;;;;5.60;5.10;;;;;;;28.67;52.37;99344.21;107097;1257;67574;-39
2023/07/07 10:47:17;;;;;;;6.80;6.10;;;;;;;28.66;52.51;99340.46;107053;1256;72728;-39
2023/07/07 10:49:50;;;;;;;6.00;5.50;;;;;;;28.68;52.36;99336.74;107230;1261;60075;-39
2023/07/07 10:52:36;;;;;;;6.00;5.40;;;;;;;28.71;52.42;99339.39;107074;1257;60018;-39
2023/07/07 10:55:07;;;;;;;;;;;;;;;28.81;52.90;99338.63;107066;1259;73070;-39
2023/07/07 10:58:15;;;;;;;7.70;6.00;;;;;;;28.91;52.02;99334.08;107074;1259;67877;-39
2023/07/07 11:01:01;;;;;;;5.60;5.00;;;;;;;29.10;51.40;99329.98;107052;1260;71175;-39
2023/07/07 11:03:40;;;;;;;5.40;4.90;;;;;;;29.28;50.42;99320.73;107052;1257;60532;-39
2023/07/07 11:06:52;;;;;;;7.00;5.10;;;;;;;29.50;49.12;99314.07;107047;1259;60207;-39
2023/07/07 11:09:33;;;;;;;5.20;4.60;;;;;;;29.75;49.10;99319.40;106745;1257;71862;-39
2023/07/07 11:12:07;;;;;;;5.10;4.70;;;;;;;29.87;47.33;99313.70;107029;1257;67495;-39
2023/07/07 11:15:05;;;;;;;16.30;8.00;;;;;;;29.96;47.62;99311.88;106964;1259;73125;-39
2023/07/07 11:17:43;;;;;;;14.50;7.30;;;;;;;30.03;48.36;99316.12;107061;1259;59673;-39
2023/07/07 11:20:33;;;;;;;6.40;5.70;;;;;;;30.09;47.83;99316.33;107031;1263;60442;-39
2023/07/07 11:23:19;;;;;;;6.10;5.40;;;;;;;30.16;46.68;99321.23;107003;1260;72727;-39
2023/07/07 11:26:04;;;;;;;5.40;4.90;;;;;;;30.21;47.42;99319.75;107054;1260;67611;-39
2023/07/07 11:28:51;;;;;;;5.30;4.90;;;;;;;30.31;46.57;99317.04;106994;1263;72750;-39
2023/07/07 11:31:18;;;;;;;6.50;5.50;;;;;;;30.46;45.51;99318.92;106937;1260;60392;-39
2023/07/07 11:34:13;;;;;;;5.90;5.30;;;;;;;30.55;45.72;99322.16;106986;1260;60339;-40
2023/07/07 11:37:06;;;;;;;6.60;5.70;;;;;;;30.72;46.18;99318.38;106926;1258;72603;-39
2023/07/07 11:39:40;;;;;;;41.40;16.60;;;;;;;30.93;45.51;99323.49;107320;1257;68375;-40
2023/07/07 11:42:26;;;;;;;7.00;6.30;;;;;;;31.05;45.40;99322.32;107291;1255;71463;-40
2023/07/07 11:45:12;;;;;;;6.00;5.40;;;;;;;31.15;44.56;99323.30;107355;1254;60505;-39
2023/07/07 11:48:23;;;;;;;7.30;6.00;;;;;;;31.14;44.87;99321.10;107381;1254;60526;-38